createdAt,value
2023-03-26T00:00:44.279Z,1.06
2023-03-26T00:03:12.291Z,1.07
2023-03-26T00:05:41.648Z,0.93
2023-03-26T00:08:09.871Z,0.82
2023-03-26T00:10:37.869Z,0.99
2023-03-26T00:13:05.881Z,1.06
2023-03-26T00:15:33.510Z,1.06
2023-03-26T00:18:00.772Z,1.01
2023-03-26T00:20:29.723Z,1.06
2023-03-26T00:22:56.467Z,1.02
2023-03-26T00:25:26.043Z,0.96
2023-03-26T00:27:52.624Z,0.97
2023-03-26T00:30:19.612Z,0.82
2023-03-26T00:32:53.968Z,0.91
2023-03-26T00:35:22.461Z,0.94
2023-03-26T00:37:51.528Z,1.07
2023-03-26T00:40:18.258Z,1.10
2023-03-26T00:42:44.877Z,1.01
2023-03-26T00:45:11.596Z,0.83
2023-03-26T00:47:40.111Z,0.90
2023-03-26T00:50:15.334Z,1.01
2023-03-26T00:52:46.247Z,0.91
2023-03-26T00:55:13.430Z,0.75
2023-03-26T00:57:40.665Z,0.86
2023-03-26T01:00:17.032Z,0.89
2023-03-26T01:02:47.259Z,0.89
2023-03-26T01:05:34.087Z,0.66
2023-03-26T01:08:22.660Z,0.79
2023-03-26T01:10:53.279Z,0.86
2023-03-26T01:13:23.427Z,1.03
2023-03-26T01:15:51.205Z,0.95
2023-03-26T01:18:26.360Z,0.99
2023-03-26T01:21:05.347Z,1.03
2023-03-26T01:23:47.017Z,1.48
2023-03-26T01:26:29.705Z,2.10
2023-03-26T01:28:59.886Z,2.33
2023-03-26T01:31:47.520Z,2.46
2023-03-26T01:34:50.366Z,2.55
2023-03-26T01:37:27.228Z,2.52
2023-03-26T01:39:56.948Z,2.50
2023-03-26T01:42:35.402Z,2.51
2023-03-26T01:45:15.535Z,2.63
2023-03-26T01:47:43.047Z,2.82
2023-03-26T01:50:10.006Z,2.86
2023-03-26T01:52:36.768Z,2.76
2023-03-26T01:55:04.286Z,2.75
2023-03-26T01:57:52.157Z,2.71
2023-03-26T02:00:28.503Z,2.65
2023-03-26T02:03:24.291Z,2.57
2023-03-26T02:05:57.949Z,2.45
2023-03-26T02:08:57.208Z,2.46
2023-03-26T02:11:33.588Z,2.23
2023-03-26T02:14:03.458Z,2.24
2023-03-26T02:16:30.023Z,2.15
2023-03-26T02:18:59.239Z,2.04
2023-03-26T02:21:27.151Z,1.86
2023-03-26T02:24:03.180Z,1.88
2023-03-26T02:26:32.425Z,1.85
2023-03-26T02:28:59.812Z,1.81
2023-03-26T02:31:30.252Z,1.80
2023-03-26T02:33:57.327Z,1.78
2023-03-26T02:36:27.528Z,1.79
2023-03-26T02:38:55.785Z,1.79
2023-03-26T02:41:22.433Z,1.71
2023-03-26T02:43:49.320Z,1.67
2023-03-26T02:46:16.119Z,1.62
2023-03-26T02:48:44.032Z,1.52
2023-03-26T02:51:10.631Z,1.41
2023-03-26T02:53:37.652Z,1.43
2023-03-26T02:56:04.541Z,1.45
2023-03-26T02:58:31.149Z,1.37
2023-03-26T03:00:57.797Z,1.29
2023-03-26T03:03:26.726Z,1.29
2023-03-26T03:05:55.078Z,1.24
2023-03-26T03:08:24.723Z,1.21
2023-03-26T03:10:57.334Z,1.25
2023-03-26T03:13:23.959Z,1.21
2023-03-26T03:15:50.699Z,1.24
2023-03-26T03:18:17.293Z,1.20
2023-03-26T03:20:44.693Z,1.21
2023-03-26T03:23:11.530Z,1.31
2023-03-26T03:25:41.322Z,1.48
2023-03-26T03:28:08.103Z,1.57
2023-03-26T03:30:35.815Z,1.62
2023-03-26T03:33:03.102Z,1.73
2023-03-26T03:35:30.440Z,1.88
2023-03-26T03:37:58.254Z,2.18
2023-03-26T03:40:25.810Z,2.40
2023-03-26T03:42:52.402Z,2.71
2023-03-26T03:45:19.132Z,3.05
2023-03-26T03:47:45.928Z,3.14
2023-03-26T03:50:12.551Z,3.16
2023-03-26T03:52:39.149Z,3.25
2023-03-26T03:55:06.137Z,3.26
2023-03-26T03:57:34.740Z,3.20
2023-03-26T04:00:01.556Z,3.21
2023-03-26T04:02:34.704Z,3.27
2023-03-26T04:05:03.008Z,3.38
2023-03-26T04:07:31.248Z,3.42
2023-03-26T04:10:00.067Z,3.45
2023-03-26T04:12:30.627Z,3.43
2023-03-26T04:14:57.976Z,3.43
2023-03-26T04:17:24.947Z,3.40
2023-03-26T04:19:55.071Z,3.43
2023-03-26T04:22:23.582Z,3.35
2023-03-26T04:24:50.265Z,3.25
2023-03-26T04:27:25.633Z,3.15
2023-03-26T04:29:52.350Z,3.09
2023-03-26T04:32:35.801Z,3.04
2023-03-26T04:35:06.809Z,2.98
2023-03-26T04:37:42.534Z,2.94
2023-03-26T04:40:15.309Z,2.89
2023-03-26T04:42:46.383Z,2.92
2023-03-26T04:45:18.012Z,2.91
2023-03-26T04:47:46.447Z,2.94
2023-03-26T04:50:13.350Z,2.98
2023-03-26T04:52:41.626Z,3.01
2023-03-26T04:55:25.529Z,3.13
2023-03-26T04:57:59.787Z,3.28
2023-03-26T05:00:28.484Z,3.38
2023-03-26T05:02:57.849Z,3.48
2023-03-26T05:05:26.115Z,3.58
2023-03-26T05:07:52.798Z,3.72
2023-03-26T05:10:22.700Z,3.92
2023-03-26T05:12:49.463Z,4.00
2023-03-26T05:15:16.745Z,4.08
2023-03-26T05:17:43.534Z,4.12
2023-03-26T05:20:30.307Z,4.16
2023-03-26T05:22:57.120Z,4.21
2023-03-26T05:25:23.782Z,4.20
2023-03-26T05:27:50.532Z,4.25
2023-03-26T05:30:20.727Z,4.38
2023-03-26T05:32:52.146Z,4.43
2023-03-26T05:35:19.712Z,4.03
2023-03-26T05:37:47.394Z,3.65
2023-03-26T05:40:17.072Z,3.60
2023-03-26T05:42:44.192Z,3.73
2023-03-26T05:45:13.153Z,3.95
2023-03-26T05:47:39.758Z,4.08
2023-03-26T05:50:07.620Z,4.24
2023-03-26T05:52:34.359Z,4.42
2023-03-26T05:55:01.013Z,4.57
2023-03-26T05:57:30.386Z,4.95
2023-03-26T05:59:57.014Z,5.27
2023-03-26T06:02:23.900Z,5.38
2023-03-26T06:04:51.005Z,5.49
2023-03-26T06:07:18.257Z,5.51
2023-03-26T06:09:45.330Z,5.51
2023-03-26T06:12:12.147Z,5.41
2023-03-26T06:14:38.859Z,5.24
2023-03-26T06:17:05.438Z,5.02
2023-03-26T06:19:32.032Z,4.89
2023-03-26T06:21:58.630Z,4.65
2023-03-26T06:24:25.360Z,4.65
2023-03-26T06:26:52.669Z,4.77
2023-03-26T06:29:19.429Z,5.05
2023-03-26T06:31:46.321Z,5.42
2023-03-26T06:34:13.111Z,5.86
2023-03-26T06:36:39.707Z,6.06
2023-03-26T06:39:07.808Z,6.22
2023-03-26T06:41:35.491Z,6.03
2023-03-26T06:44:02.276Z,6.27
2023-03-26T06:46:29.105Z,6.37
2023-03-26T06:48:55.732Z,6.39
2023-03-26T06:51:22.277Z,6.53
2023-03-26T06:53:48.855Z,6.51
2023-03-26T06:56:15.605Z,6.59
2023-03-26T06:58:42.150Z,6.67
2023-03-26T07:01:08.851Z,6.76
2023-03-26T07:03:35.634Z,6.96
2023-03-26T07:06:02.304Z,7.00
2023-03-26T07:08:28.894Z,7.31
2023-03-26T07:10:55.714Z,7.62
2023-03-26T07:13:22.773Z,7.92
2023-03-26T07:15:49.475Z,7.87
2023-03-26T07:18:16.211Z,8.01
2023-03-26T07:20:44.910Z,8.30
2023-03-26T07:23:12.423Z,8.52
2023-03-26T07:25:39.401Z,8.79
2023-03-26T07:28:24.334Z,9.20
2023-03-26T07:31:27.988Z,9.60
2023-03-26T07:34:32.821Z,9.67
2023-03-26T07:37:11.083Z,9.76
2023-03-26T07:40:03.073Z,9.71
2023-03-26T07:42:41.555Z,9.80
2023-03-26T07:45:26.094Z,10.05
2023-03-26T07:47:53.668Z,10.18
2023-03-26T07:50:23.023Z,10.36
2023-03-26T07:52:49.951Z,10.47
2023-03-26T07:55:17.483Z,10.32
2023-03-26T07:57:58.486Z,10.08
2023-03-26T08:00:39.357Z,10.01
2023-03-26T08:03:17.107Z,10.14
2023-03-26T08:05:59.069Z,10.48
2023-03-26T08:08:48.742Z,10.43
2023-03-26T08:11:24.742Z,10.36
2023-03-26T08:14:19.292Z,10.33
2023-03-26T08:16:56.084Z,10.24
2023-03-26T08:19:35.041Z,10.25
2023-03-26T08:22:26.233Z,10.41
2023-03-26T08:25:12.031Z,10.46
2023-03-26T08:27:48.127Z,10.24
2023-03-26T08:30:18.893Z,10.13
2023-03-26T08:32:54.356Z,10.25
2023-03-26T08:35:21.383Z,10.24
2023-03-26T08:37:48.052Z,10.26
2023-03-26T08:40:29.968Z,10.19
2023-03-26T08:43:09.287Z,10.18
2023-03-26T08:45:44.581Z,10.22
2023-03-26T08:48:45.523Z,10.36
2023-03-26T08:51:43.115Z,10.19
2023-03-26T08:54:41.286Z,10.28
2023-03-26T08:57:43.688Z,10.39
2023-03-26T09:00:28.728Z,10.50
2023-03-26T09:03:04.425Z,10.66
2023-03-26T09:05:55.252Z,10.76
2023-03-26T09:08:53.924Z,11.05
2023-03-26T09:11:47.214Z,11.33
2023-03-26T09:14:30.295Z,11.14
2023-03-26T09:17:08.999Z,11.21
2023-03-26T09:20:13.755Z,11.36
2023-03-26T09:23:13.392Z,11.57
2023-03-26T09:25:58.498Z,11.76
2023-03-26T09:28:58.509Z,11.74
2023-03-26T09:31:45.525Z,11.81
2023-03-26T09:34:18.010Z,11.92
2023-03-26T09:37:05.863Z,11.98
2023-03-26T09:39:44.394Z,12.12
2023-03-26T09:42:24.358Z,12.18
2023-03-26T09:45:10.589Z,12.24
2023-03-26T09:48:09.219Z,12.39
2023-03-26T09:50:56.186Z,12.51
2023-03-26T09:53:44.664Z,12.52
2023-03-26T09:56:32.781Z,12.58
2023-03-26T09:59:20.801Z,12.63
2023-03-26T10:02:15.508Z,12.27
2023-03-26T10:05:13.643Z,12.13
2023-03-26T10:08:06.689Z,12.13
2023-03-26T10:11:03.057Z,12.40
2023-03-26T10:13:52.857Z,12.51
2023-03-26T10:16:34.393Z,12.53
2023-03-26T10:19:20.306Z,12.54
2023-03-26T10:22:05.710Z,12.78
2023-03-26T10:24:59.085Z,12.95
2023-03-26T10:27:44.079Z,13.27
2023-03-26T10:30:22.574Z,13.28
2023-03-26T10:33:02.859Z,13.48
2023-03-26T10:35:53.571Z,13.73
2023-03-26T10:38:45.424Z,13.94
2023-03-26T10:41:15.178Z,13.99
2023-03-26T10:44:17.202Z,14.13
2023-03-26T10:47:01.228Z,14.18
2023-03-26T10:49:39.889Z,14.22
2023-03-26T10:52:16.322Z,14.16
2023-03-26T10:54:53.550Z,13.93
2023-03-26T10:57:37.016Z,13.71
2023-03-26T11:00:14.962Z,13.71
2023-03-26T11:03:19.227Z,13.75
2023-03-26T11:06:15.973Z,13.73
2023-03-26T11:08:57.412Z,13.76
2023-03-26T11:11:38.750Z,13.98
2023-03-26T11:14:51.498Z,14.06
2023-03-26T11:17:42.288Z,13.92
2023-03-26T11:20:41.159Z,14.16
2023-03-26T11:23:07.732Z,14.39
2023-03-26T11:26:02.057Z,14.57
2023-03-26T11:29:03.634Z,14.76
2023-03-26T11:32:05.292Z,14.63
2023-03-26T11:34:41.966Z,14.49
2023-03-26T11:37:17.646Z,14.52
2023-03-26T11:39:55.116Z,14.29
2023-03-26T11:42:24.545Z,14.22
2023-03-26T11:45:04.598Z,13.79
2023-03-26T11:47:37.694Z,13.64
2023-03-26T11:50:07.297Z,13.61
2023-03-26T11:52:33.923Z,13.64
2023-03-26T11:55:00.539Z,13.71
2023-03-26T11:57:33.257Z,13.56
2023-03-26T11:59:59.993Z,13.62
2023-03-26T12:02:29.762Z,13.50
2023-03-26T12:05:21.928Z,13.20
2023-03-26T12:07:56.889Z,12.83
2023-03-26T12:10:43.708Z,12.70
2023-03-26T12:13:37.203Z,12.56
2023-03-26T12:16:15.396Z,12.73
2023-03-26T12:18:44.593Z,12.81
2023-03-26T12:21:15.866Z,12.78
2023-03-26T12:23:50.949Z,12.81
2023-03-26T12:26:21.134Z,12.75
2023-03-26T12:28:51.311Z,12.71
2023-03-26T12:31:19.427Z,12.71
2023-03-26T12:34:04.092Z,12.73
2023-03-26T12:36:33.617Z,13.10
2023-03-26T12:40:05.887Z,13.32
2023-03-26T12:44:42.674Z,13.41
2023-03-26T12:44:58.968Z,13.35
2023-03-26T12:47:57.523Z,13.45
2023-03-26T12:50:34.554Z,13.61
2023-03-26T12:53:46.329Z,13.41
2023-03-26T12:56:36.381Z,13.39
2023-03-26T12:59:40.675Z,13.28
2023-03-26T13:02:25.570Z,13.28
2023-03-26T13:05:07.248Z,13.22
2023-03-26T13:07:34.280Z,13.39
2023-03-26T13:10:23.670Z,13.54
2023-03-26T13:13:18.701Z,13.25
2023-03-26T13:15:54.023Z,13.14
2023-03-26T13:18:51.926Z,13.18
2023-03-26T13:21:53.493Z,13.45
2023-03-26T13:24:39.534Z,13.49
2023-03-26T13:27:35.382Z,13.33
2023-03-26T13:30:25.513Z,13.11
2023-03-26T13:33:14.715Z,13.24
2023-03-26T13:35:47.471Z,13.16
2023-03-26T13:38:20.484Z,13.19
2023-03-26T13:40:47.138Z,13.24
2023-03-26T13:43:44.812Z,13.37
2023-03-26T13:46:22.331Z,13.50
2023-03-26T13:49:00.287Z,13.66
2023-03-26T13:51:35.260Z,13.74
2023-03-26T13:54:21.577Z,13.92
2023-03-26T13:56:58.758Z,13.83
2023-03-26T13:59:41.664Z,13.69
2023-03-26T14:02:24.545Z,13.39
2023-03-26T14:05:30.391Z,13.12
2023-03-26T14:08:05.862Z,12.88
2023-03-26T14:10:38.639Z,12.69
2023-03-26T14:13:16.401Z,12.63
2023-03-26T14:15:55.853Z,12.59
2023-03-26T14:18:37.429Z,12.60
2023-03-26T14:21:36.614Z,12.47
2023-03-26T14:24:12.293Z,12.34
2023-03-26T14:27:00.800Z,12.18
2023-03-26T14:29:58.309Z,12.00
2023-03-26T14:32:30.857Z,11.96
2023-03-26T14:35:13.411Z,11.84
2023-03-26T14:38:19.236Z,11.72
2023-03-26T14:41:22.898Z,11.56
2023-03-26T14:44:47.988Z,11.52
2023-03-26T14:47:17.834Z,11.48
2023-03-26T14:50:20.218Z,11.42
2023-03-26T14:52:52.234Z,11.40
2023-03-26T14:55:54.755Z,11.39
2023-03-26T14:58:37.666Z,11.32
2023-03-26T15:01:10.112Z,11.30
2023-03-26T15:03:58.231Z,11.24
2023-03-26T15:06:25.303Z,11.22
2023-03-26T15:09:13.827Z,11.08
2023-03-26T15:11:52.254Z,11.01
2023-03-26T15:14:37.037Z,11.00
2023-03-26T15:17:12.700Z,10.97
2023-03-26T15:20:05.102Z,11.03
2023-03-26T15:22:49.711Z,11.02
2023-03-26T15:25:54.257Z,11.02
2023-03-26T15:28:39.455Z,11.00
2023-03-26T15:31:09.888Z,10.98
2023-03-26T15:33:48.786Z,10.89
2023-03-26T15:36:53.307Z,10.83
2023-03-26T15:39:59.164Z,10.70
2023-03-26T15:42:36.738Z,10.67
2023-03-26T15:45:13.913Z,10.65
2023-03-26T15:47:56.200Z,10.71
2023-03-26T15:50:31.133Z,10.69
2023-03-26T15:53:12.797Z,10.69
2023-03-26T15:55:57.810Z,10.68
2023-03-26T15:58:36.874Z,10.66
2023-03-26T16:01:19.093Z,10.59
2023-03-26T16:04:09.229Z,10.55
2023-03-26T16:06:59.160Z,10.43
2023-03-26T16:09:34.117Z,10.35
2023-03-26T16:12:24.968Z,10.15
2023-03-26T16:15:07.397Z,9.98
2023-03-26T16:18:05.272Z,9.93
2023-03-26T16:20:46.775Z,9.83
2023-03-26T16:23:24.453Z,9.80
2023-03-26T16:26:07.690Z,9.77
2023-03-26T16:28:35.970Z,9.80
2023-03-26T16:31:10.818Z,9.81
2023-03-26T16:34:40.854Z,9.82
2023-03-26T16:37:29.919Z,9.72
2023-03-26T16:40:16.678Z,9.63
2023-03-26T16:43:01.238Z,9.62
2023-03-26T16:45:35.178Z,9.59
2023-03-26T16:48:16.910Z,9.47
2023-03-26T16:50:59.158Z,9.41
2023-03-26T16:53:51.949Z,9.36
2023-03-26T16:56:47.583Z,9.29
2023-03-26T17:00:06.302Z,9.23
2023-03-26T17:02:56.863Z,9.12
2023-03-26T17:05:56.514Z,8.99
2023-03-26T17:09:05.918Z,8.85
2023-03-26T17:11:38.626Z,8.78
2023-03-26T17:14:26.703Z,8.72
2023-03-26T17:17:26.866Z,8.63
2023-03-26T17:20:04.200Z,8.48
2023-03-26T17:22:43.233Z,8.35
2023-03-26T17:25:28.443Z,8.19
2023-03-26T17:28:24.052Z,8.13
2023-03-26T17:31:15.929Z,8.08
2023-03-26T17:33:43.203Z,8.03
2023-03-26T17:36:12.670Z,8.02
2023-03-26T17:38:39.307Z,8.03
2023-03-26T17:41:07.920Z,8.09
2023-03-26T17:43:43.563Z,8.09
2023-03-26T17:46:48.348Z,8.07
2023-03-26T17:49:22.310Z,8.03
2023-03-26T17:51:58.095Z,7.97
2023-03-26T17:54:34.691Z,7.92
2023-03-26T17:57:06.173Z,7.87
2023-03-26T17:59:33.761Z,7.84
2023-03-26T18:02:05.477Z,7.81
2023-03-26T18:04:38.986Z,7.79
2023-03-26T18:07:26.086Z,7.78
2023-03-26T18:10:13.022Z,7.73
2023-03-26T18:12:54.085Z,7.69
2023-03-26T18:15:26.416Z,7.70
2023-03-26T18:18:03.218Z,7.69
2023-03-26T18:20:30.015Z,7.64
2023-03-26T18:22:57.646Z,7.59
2023-03-26T18:25:32.686Z,7.58
2023-03-26T18:28:02.048Z,7.57
2023-03-26T18:30:29.357Z,7.54
2023-03-26T18:33:13.748Z,7.51
2023-03-26T18:35:49.688Z,7.47
2023-03-26T18:38:35.531Z,7.44
2023-03-26T18:41:08.087Z,7.42
2023-03-26T18:43:44.584Z,7.43
2023-03-26T18:46:14.553Z,7.43
2023-03-26T18:48:41.945Z,7.40
2023-03-26T18:51:09.812Z,7.38
2023-03-26T18:53:40.924Z,7.34
2023-03-26T18:56:33.747Z,7.32
2023-03-26T18:59:02.752Z,7.30
2023-03-26T19:01:32.251Z,7.25
2023-03-26T19:04:05.921Z,7.22
2023-03-26T19:06:38.266Z,7.19
2023-03-26T19:09:23.669Z,7.14
2023-03-26T19:11:57.763Z,7.10
2023-03-26T19:14:26.126Z,7.13
2023-03-26T19:16:59.847Z,7.11
2023-03-26T19:19:39.651Z,7.04
2023-03-26T19:22:08.903Z,6.98
2023-03-26T19:24:36.259Z,6.98
2023-03-26T19:27:04.132Z,6.96
2023-03-26T19:29:36.216Z,6.92
2023-03-26T19:32:06.774Z,6.88
2023-03-26T19:34:40.186Z,6.87
2023-03-26T19:37:21.420Z,6.87
2023-03-26T19:40:09.828Z,6.86
2023-03-26T19:42:43.652Z,6.85
2023-03-26T19:45:23.103Z,6.74
2023-03-26T19:47:57.320Z,6.78
2023-03-26T19:50:30.096Z,6.76
2023-03-26T19:53:18.895Z,6.72
2023-03-26T19:56:05.192Z,6.71
2023-03-26T19:58:32.880Z,6.67
2023-03-26T20:00:59.615Z,6.69
2023-03-26T20:03:44.441Z,6.65
2023-03-26T20:06:13.414Z,6.62
2023-03-26T20:08:40.696Z,6.59
2023-03-26T20:11:15.010Z,6.54
2023-03-26T20:13:41.570Z,6.53
2023-03-26T20:16:29.036Z,6.56
2023-03-26T20:18:57.288Z,6.57
2023-03-26T20:21:25.538Z,6.58
2023-03-26T20:23:55.638Z,6.55
2023-03-26T20:26:24.067Z,6.57
2023-03-26T20:28:53.533Z,6.52
2023-03-26T20:31:25.014Z,6.46
2023-03-26T20:33:53.370Z,6.46
2023-03-26T20:36:33.856Z,6.49
2023-03-26T20:39:03.078Z,6.46
2023-03-26T20:41:29.747Z,6.47
2023-03-26T20:43:56.949Z,6.39
2023-03-26T20:46:30.860Z,6.37
2023-03-26T20:48:59.707Z,6.36
2023-03-26T20:51:28.601Z,6.31
2023-03-26T20:53:56.203Z,6.33
2023-03-26T20:56:23.466Z,6.32
2023-03-26T20:59:03.710Z,6.27
2023-03-26T21:01:34.901Z,6.20
2023-03-26T21:04:04.356Z,6.17
2023-03-26T21:06:31.547Z,6.14
2023-03-26T21:08:58.463Z,6.17
2023-03-26T21:11:56.502Z,6.16
2023-03-26T21:14:26.900Z,6.14
2023-03-26T21:16:53.791Z,6.11
2023-03-26T21:19:20.582Z,6.13
2023-03-26T21:21:50.879Z,6.06
2023-03-26T21:24:21.985Z,6.05
2023-03-26T21:27:08.481Z,6.06
2023-03-26T21:29:35.303Z,6.01
2023-03-26T21:32:02.193Z,5.98
2023-03-26T21:34:29.399Z,5.97
2023-03-26T21:36:56.264Z,5.94
2023-03-26T21:39:23.298Z,5.91
2023-03-26T21:42:04.807Z,5.98
2023-03-26T21:44:33.252Z,6.02
2023-03-26T21:47:00.359Z,6.02
2023-03-26T21:49:27.357Z,6.02
2023-03-26T21:51:54.338Z,6.04
2023-03-26T21:54:29.704Z,6.06
2023-03-26T21:57:30.552Z,6.05
2023-03-26T22:00:18.509Z,5.98
2023-03-26T22:02:51.219Z,6.00
2023-03-26T22:05:21.058Z,5.96
2023-03-26T22:07:58.717Z,5.95
2023-03-26T22:10:25.355Z,5.93
2023-03-26T22:12:51.981Z,5.92
2023-03-26T22:15:20.051Z,5.95
2023-03-26T22:17:54.189Z,5.93
2023-03-26T22:20:25.656Z,5.87
2023-03-26T22:22:53.392Z,5.84
2023-03-26T22:25:21.946Z,5.84
2023-03-26T22:27:50.762Z,5.85
2023-03-26T22:30:18.913Z,5.84
2023-03-26T22:32:45.750Z,5.82
2023-03-26T22:35:13.052Z,5.78
2023-03-26T22:37:40.532Z,5.75
2023-03-26T22:40:08.857Z,5.73
2023-03-26T22:42:36.362Z,5.76
2023-03-26T22:45:04.133Z,5.81
2023-03-26T22:47:33.737Z,5.77
2023-03-26T22:50:00.769Z,5.70
2023-03-26T22:52:28.019Z,5.71
2023-03-26T22:54:54.753Z,5.69
2023-03-26T22:57:24.115Z,5.66
2023-03-26T22:59:50.847Z,5.61
2023-03-26T23:02:18.313Z,5.58
2023-03-26T23:04:46.305Z,5.56
2023-03-26T23:07:13.120Z,5.59
2023-03-26T23:09:39.723Z,5.60
2023-03-26T23:12:06.744Z,5.56
2023-03-26T23:14:33.373Z,5.55
2023-03-26T23:17:00.538Z,5.53
2023-03-26T23:19:27.132Z,5.50
2023-03-26T23:21:53.722Z,5.55
2023-03-26T23:24:20.263Z,5.55
2023-03-26T23:26:51.095Z,5.56
2023-03-26T23:29:18.343Z,5.56
2023-03-26T23:31:44.981Z,5.51
2023-03-26T23:34:13.546Z,5.50
2023-03-26T23:36:40.915Z,5.50
2023-03-26T23:39:08.420Z,5.54
2023-03-26T23:41:35.612Z,5.51
2023-03-26T23:44:02.255Z,5.49
2023-03-26T23:46:34.904Z,5.50
2023-03-26T23:49:04.497Z,5.50
2023-03-26T23:51:31.917Z,5.49
2023-03-26T23:53:59.846Z,5.49
2023-03-26T23:56:32.878Z,5.52
2023-03-26T23:59:00.643Z,5.49
